Time;durP1;ratioP1;P1;durP2;ratioP2;P2;SDS_P1;SDS_P2;PMS_P1;PMS_P2;Temp;Humidity;BMP_temperature;BMP_pressure;BME280_temperature;BME280_humidity;BME280_pressure;Samples;Min_cycle;Max_cycle;Signal;HPM_P1;HPM_P2
2021/05/31 00:04:03;;;;;;;12.48;7.38;;;13.90;99.90;;;;;;12433293;28;20132;-37
2021/05/31 00:10:08;;;;;;;11.50;6.55;;;13.80;99.90;;;;;;12437322;28;20124;-38
2021/05/31 00:16:09;;;;;;;;;;;13.50;99.90;;;;;;12435968;28;20054;-37
2021/05/31 00:22:11;;;;;;;13.20;7.10;;;13.40;99.90;;;;;;12435436;28;19929;-37
2021/05/31 00:28:13;;;;;;;12.85;7.57;;;13.20;99.90;;;;;;12437860;28;20054;-37
2021/05/31 00:34:15;;;;;;;13.85;8.00;;;13.10;99.90;;;;;;12431856;28;20084;-37
2021/05/31 00:40:18;;;;;;;13.13;8.77;;;13.10;99.90;;;;;;12435416;28;20115;-37
2021/05/31 00:46:19;;;;;;;10.02;6.72;;;13.20;99.90;;;;;;12435280;28;20153;-38
2021/05/31 00:52:22;;;;;;;14.00;7.72;;;13.30;99.90;;;;;;12434308;28;20330;-37
2021/05/31 00:58:27;;;;;;;11.38;7.50;;;13.30;99.90;;;;;;12443609;28;20652;-38
2021/05/31 01:04:29;;;;;;;17.65;8.52;;;12.90;99.90;;;;;;12443074;28;20083;-38
2021/05/31 01:10:34;;;;;;;14.52;8.73;;;12.70;99.90;;;;;;12445696;28;20073;-37
2021/05/31 01:16:46;;;;;;;16.20;8.85;;;12.40;99.90;;;;;;12443855;28;20102;-37
2021/05/31 01:22:49;;;;;;;16.15;8.00;;;12.40;99.90;;;;;;12433049;28;20049;-37
2021/05/31 01:29:06;;;;;;;12.50;8.82;;;12.60;99.90;;;;;;12438883;28;20100;-37
2021/05/31 01:35:17;;;;;;;27.45;10.10;;;12.70;99.90;;;;;;12440901;28;20053;-37
2021/05/31 01:41:20;;;;;;;16.42;8.38;;;12.70;99.90;;;;;;12441484;28;20053;-38
2021/05/31 01:47:22;;;;;;;16.35;8.77;;;12.60;99.90;;;;;;12443054;28;20053;-37
2021/05/31 01:53:24;;;;;;;15.48;9.30;;;12.40;99.90;;;;;;12440172;28;20403;-37
2021/05/31 01:59:27;;;;;;;15.82;9.98;;;12.30;99.90;;;;;;12435342;28;20049;-37
2021/05/31 02:05:29;;;;;;;17.60;9.75;;;12.30;99.90;;;;;;12441414;28;20149;-37
2021/05/31 02:12:03;;;;;;;17.52;11.00;;;12.30;99.90;;;;;;12440378;28;20575;-37
2021/05/31 02:18:24;;;;;;;20.35;11.50;;;12.20;99.90;;;;;;12430756;28;20049;-38
2021/05/31 02:24:26;;;;;;;20.23;11.85;;;12.20;99.90;;;;;;12436401;28;20564;-37
2021/05/31 02:30:29;;;;;;;19.50;11.90;;;12.20;99.90;;;;;;12437323;28;20543;-37
2021/05/31 02:36:31;;;;;;;21.20;12.45;;;12.20;99.90;;;;;;12437391;28;20059;-41
2021/05/31 02:42:59;;;;;;;21.05;12.60;;;12.10;99.90;;;;;;12439235;28;20081;-40
2021/05/31 02:49:03;;;;;;;16.73;11.90;;;12.10;99.90;;;;;;12438712;28;20140;-38
2021/05/31 02:55:06;;;;;;;23.52;12.52;;;12.00;99.90;;;;;;12438970;28;20050;-37
2021/05/31 03:01:08;;;;;;;18.10;11.57;;;11.90;99.90;;;;;;12436679;28;20053;-36
2021/05/31 03:07:10;;;;;;;19.52;11.43;;;11.90;99.90;;;;;;12436098;28;20062;-38
2021/05/31 03:13:11;;;;;;;19.17;12.73;;;11.80;99.90;;;;;;12434765;28;20452;-38
2021/05/31 03:19:13;;;;;;;21.30;12.40;;;11.60;99.90;;;;;;12437193;28;20115;-37
2021/05/31 03:25:15;;;;;;;26.77;14.52;;;11.40;99.90;;;;;;12435623;28;20041;-38
2021/05/31 03:31:17;;;;;;;22.17;14.75;;;11.30;99.90;;;;;;12433039;28;20046;-37
2021/05/31 03:37:19;;;;;;;21.50;14.02;;;11.40;99.90;;;;;;12435221;28;20450;-37
2021/05/31 03:43:21;;;;;;;23.55;16.05;;;11.40;99.90;;;;;;12437720;28;20049;-37
2021/05/31 03:49:22;;;;;;;25.35;14.93;;;11.40;99.90;;;;;;12438798;28;20146;-37
2021/05/31 03:55:25;;;;;;;30.95;17.90;;;11.40;99.90;;;;;;12434125;28;20103;-37
2021/05/31 04:01:27;;;;;;;30.38;18.13;;;11.40;99.90;;;;;;12435420;28;20045;-36
2021/05/31 04:13:50;;;;;;;37.30;22.38;;;11.50;99.90;;;;;;12434358;28;20082;-37
2021/05/31 04:19:52;;;;;;;45.10;23.35;;;11.40;99.90;;;;;;12428917;28;20045;-37
2021/05/31 04:25:54;;;;;;;49.00;27.38;;;11.50;99.90;;;;;;12432748;28;20674;-38
2021/05/31 04:31:56;;;;;;;51.30;24.05;;;11.60;99.90;;;;;;12429631;28;20049;-37
2021/05/31 04:37:58;;;;;;;69.75;24.88;;;11.70;99.90;;;;;;12435602;28;20075;-37
2021/05/31 04:44:00;;;;;;;34.22;21.02;;;11.80;99.90;;;;;;12433287;28;20098;-40
2021/05/31 04:50:02;;;;;;;59.17;22.50;;;11.80;99.90;;;;;;12432021;28;20127;-39
2021/05/31 04:56:07;;;;;;;30.77;20.77;;;11.90;99.90;;;;;;12425168;28;20500;-39
2021/05/31 05:02:09;;;;;;;38.40;21.23;;;12.00;99.90;;;;;;12433357;28;20814;-40
2021/05/31 05:08:11;;;;;;;33.15;22.90;;;12.00;99.90;;;;;;12429371;28;20049;-38
2021/05/31 05:14:13;;;;;;;36.50;21.27;;;12.20;99.90;;;;;;12430889;28;20046;-39
2021/05/31 05:20:16;;;;;;;32.42;21.40;;;12.10;99.90;;;;;;12429034;28;20063;-39
2021/05/31 05:26:19;;;;;;;34.47;22.85;;;12.30;99.90;;;;;;12439603;28;20741;-40
2021/05/31 05:32:21;;;;;;;32.90;21.70;;;12.30;99.90;;;;;;12441186;28;20056;-39
2021/05/31 05:50:36;;;;;;;36.53;22.30;;;12.30;99.90;;;;;;12444325;28;20134;-39
2021/05/31 05:56:38;;;;;;;34.92;21.98;;;12.40;99.90;;;;;;12446827;28;20053;-39
2021/05/31 06:02:40;;;;;;;29.33;20.35;;;12.70;99.90;;;;;;12439670;28;20041;-41
2021/05/31 06:08:42;;;;;;;27.88;20.02;;;12.60;99.90;;;;;;12441790;28;20049;-39
2021/05/31 06:14:44;;;;;;;30.23;18.73;;;12.70;99.90;;;;;;12438937;28;20045;-39
2021/05/31 06:20:46;;;;;;;24.77;18.27;;;12.80;99.90;;;;;;12439896;28;20046;-39
2021/05/31 06:26:48;;;;;;;24.80;17.42;;;13.20;99.90;;;;;;12441082;28;20100;-39
2021/05/31 06:32:50;;;;;;;27.10;16.90;;;13.30;99.90;;;;;;12439113;28;20054;-39
2021/05/31 06:38:52;;;;;;;22.25;16.60;;;13.40;99.90;;;;;;12439182;28;20049;-40
2021/05/31 06:44:53;;;;;;;18.80;13.82;;;13.80;99.90;;;;;;12439646;28;20600;-38
2021/05/31 06:50:55;;;;;;;21.98;14.60;;;13.70;99.90;;;;;;12438875;28;20145;-39
2021/05/31 06:56:58;;;;;;;19.27;13.32;;;13.90;99.90;;;;;;12435608;28;20060;-39
2021/05/31 07:03:02;;;;;;;19.52;13.20;;;13.90;99.90;;;;;;12438744;28;20057;-40
2021/05/31 07:09:04;;;;;;;15.23;11.25;;;13.90;99.90;;;;;;12432982;28;20095;-39
2021/05/31 07:15:12;;;;;;;14.60;11.30;;;14.00;99.90;;;;;;12437446;28;20091;-39
2021/05/31 07:21:14;;;;;;;17.30;10.88;;;14.10;99.90;;;;;;12430686;28;20049;-38
2021/05/31 07:27:16;;;;;;;16.10;11.65;;;14.30;99.90;;;;;;12432299;28;20098;-39
2021/05/31 07:33:18;;;;;;;14.85;10.82;;;14.30;99.90;;;;;;12432361;28;20045;-40
2021/05/31 07:39:20;;;;;;;13.82;11.02;;;14.40;99.90;;;;;;12438160;28;20061;-39
2021/05/31 07:45:22;;;;;;;13.45;9.25;;;14.60;99.90;;;;;;12432010;28;20124;-39
2021/05/31 07:51:26;;;;;;;12.40;10.15;;;14.80;99.90;;;;;;12438532;28;20501;-40
2021/05/31 07:57:27;;;;;;;13.40;8.70;;;15.00;99.90;;;;;;12425849;28;20058;-39
2021/05/31 08:03:30;;;;;;;12.73;7.70;;;15.30;99.90;;;;;;12433889;28;20762;-39
2021/05/31 08:09:32;;;;;;;10.65;7.70;;;15.50;99.90;;;;;;12429197;28;20075;-37
2021/05/31 08:15:34;;;;;;;9.20;5.72;;;15.80;99.90;;;;;;12431526;28;20049;-38
2021/05/31 08:21:36;;;;;;;10.60;5.90;;;16.10;99.90;;;;;;12429715;28;20400;-38
2021/05/31 08:27:38;;;;;;;12.77;6.93;;;16.20;99.90;;;;;;12427778;28;20061;-37
2021/05/31 08:33:40;;;;;;;11.55;7.03;;;16.50;99.90;;;;;;12426340;28;20552;-38
2021/05/31 08:39:43;;;;;;;10.10;7.03;;;16.50;99.90;;;;;;12435626;28;20046;-37
2021/05/31 08:45:45;;;;;;;7.40;4.97;;;16.80;99.90;;;;;;12425746;28;20090;-37
2021/05/31 08:51:47;;;;;;;9.73;6.40;;;16.90;99.90;;;;;;12431497;28;20100;-38
2021/05/31 08:57:50;;;;;;;11.70;6.15;;;17.00;99.90;;;;;;12428513;28;20049;-38
2021/05/31 09:03:57;;;;;;;7.57;4.25;;;17.10;99.90;;;;;;12425525;28;20059;-39
2021/05/31 09:09:59;;;;;;;58.08;13.38;;;17.30;99.90;;;;;;12428860;28;20050;-37
2021/05/31 09:16:10;;;;;;;32.72;9.77;;;17.30;99.90;;;;;;12433950;28;20465;-37
2021/05/31 09:22:12;;;;;;;8.52;5.00;;;17.50;99.90;;;;;;12437524;28;20100;-37
2021/05/31 09:28:14;;;;;;;8.95;5.13;;;17.50;99.90;;;;;;12438652;28;20053;-38
2021/05/31 09:34:16;;;;;;;8.95;4.70;;;17.70;99.90;;;;;;12444914;28;20054;-37
2021/05/31 09:40:24;;;;;;;9.10;3.50;;;17.90;99.90;;;;;;12444425;28;20075;-38
2021/05/31 09:46:42;;;;;;;5.68;2.70;;;18.00;99.90;;;;;;12436965;28;20100;-37
2021/05/31 09:52:44;;;;;;;6.25;2.80;;;18.10;99.90;;;;;;12443642;28;20404;-38
2021/05/31 09:58:50;;;;;;;4.88;2.28;;;18.30;99.90;;;;;;12440777;28;20058;-37
2021/05/31 10:05:02;;;;;;;66.78;13.55;;;18.50;99.90;;;;;;12439400;28;20119;-39
2021/05/31 10:11:04;;;;;;;7.15;2.20;;;18.70;99.90;;;;;;12441286;28;20567;-37
2021/05/31 10:17:07;;;;;;;5.43;1.98;;;18.70;99.90;;;;;;12436707;28;20061;-37
2021/05/31 10:23:11;;;;;;;5.45;2.13;;;18.90;99.90;;;;;;12442442;28;20849;-38
2021/05/31 10:29:13;;;;;;;5.15;2.00;;;19.10;99.90;;;;;;12435889;28;20041;-38
2021/05/31 10:35:17;;;;;;;4.28;1.98;;;19.40;99.90;;;;;;12433369;28;20053;-37
2021/05/31 10:41:24;;;;;;;4.65;1.80;;;19.60;99.90;;;;;;12443525;28;20054;-38
2021/05/31 10:47:26;;;;;;;4.57;2.10;;;19.90;99.90;;;;;;12430859;28;20096;-37
2021/05/31 10:53:31;;;;;;;4.28;1.48;;;20.20;99.90;;;;;;12438965;28;20477;-37
2021/05/31 10:59:44;;;;;;;3.47;1.45;;;19.90;99.90;;;;;;12435648;28;20141;-37
2021/05/31 11:05:46;;;;;;;3.37;1.50;;;20.30;99.90;;;;;;12438728;28;20112;-37
2021/05/31 11:11:50;;;;;;;2.88;1.30;;;20.30;99.90;;;;;;12431845;28;20094;-37
2021/05/31 11:17:53;;;;;;;3.80;1.20;;;20.50;99.90;;;;;;12433247;28;20053;-37
2021/05/31 11:24:14;;;;;;;3.75;1.30;;;20.50;99.90;;;;;;12439101;28;20144;-37
2021/05/31 11:30:19;;;;;;;3.80;1.30;;;21.10;99.90;;;;;;12434881;28;20049;-37
2021/05/31 11:36:36;;;;;;;3.25;1.00;;;21.00;99.90;;;;;;12434314;28;20136;-38
2021/05/31 11:42:43;;;;;;;3.20;0.85;;;21.20;99.70;;;;;;12432156;28;20042;-38
2021/05/31 11:48:46;;;;;;;3.90;0.90;;;21.10;96.30;;;;;;12407253;28;20057;-37
2021/05/31 11:54:49;;;;;;;3.20;0.93;;;21.30;98.20;;;;;;12411571;28;20054;-38
2021/05/31 12:00:51;;;;;;;1.97;0.77;;;21.40;94.40;;;;;;12433152;28;20045;-39
2021/05/31 12:07:06;;;;;;;2.55;0.98;;;21.90;99.20;;;;;;12434622;28;20049;-38
2021/05/31 12:13:09;;;;;;;2.05;0.93;;;21.50;92.60;;;;;;12435434;28;20122;-38
2021/05/31 12:19:15;;;;;;;2.78;1.00;;;21.60;75.70;;;;;;12430831;28;20172;-38
2021/05/31 12:25:17;;;;;;;3.53;0.90;;;21.20;81.40;;;;;;12436570;28;20140;-38
2021/05/31 12:31:19;;;;;;;3.05;0.70;;;21.30;81.60;;;;;;12434539;28;20057;-38
2021/05/31 12:37:30;;;;;;;3.13;0.80;;;21.40;94.30;;;;;;12436285;28;20057;-37
2021/05/31 12:43:34;;;;;;;2.15;0.77;;;21.60;88.10;;;;;;12421422;28;20423;-38
2021/05/31 12:49:45;;;;;;;1.75;0.85;;;22.00;92.50;;;;;;12431979;28;20156;-37
2021/05/31 12:55:48;;;;;;;2.80;0.80;;;21.90;91.90;;;;;;12439374;28;20723;-39
2021/05/31 13:01:50;;;;;;;1.45;0.70;;;21.60;81.10;;;;;;12439021;28;20053;-38
2021/05/31 13:07:57;;;;;;;2.13;0.80;;;22.00;86.70;;;;;;12445392;28;20075;-39
2021/05/31 13:14:02;;;;;;;3.15;0.85;;;22.20;86.80;;;;;;12446230;28;20054;-39
2021/05/31 13:20:10;;;;;;;3.63;0.95;;;22.00;78.70;;;;;;12440300;28;20169;-39
2021/05/31 13:26:24;;;;;;;2.35;1.10;;;22.10;90.00;;;;;;12436732;28;20092;-37
2021/05/31 13:32:29;;;;;;;1.23;0.70;;;22.10;86.70;;;;;;12442112;28;20547;-39
2021/05/31 13:38:31;;;;;;;256.33;46.13;;;21.90;78.00;;;;;;12439438;28;20150;-38
2021/05/31 13:44:33;;;;;;;9.45;2.08;;;22.00;90.50;;;;;;12438596;28;20049;-38
2021/05/31 13:50:37;;;;;;;59.92;10.30;;;22.10;84.80;;;;;;12434425;28;20132;-41
2021/05/31 13:56:40;;;;;;;2.55;0.80;;;22.00;84.60;;;;;;12433069;28;20057;-39
2021/05/31 14:02:44;;;;;;;66.38;11.15;;;22.10;84.40;;;;;;12441625;28;20067;-38
2021/05/31 14:08:46;;;;;;;26.92;5.80;;;22.10;89.90;;;;;;12437812;28;20100;-40
2021/05/31 14:14:48;;;;;;;19.98;3.83;;;22.70;76.10;;;;;;12439955;28;20058;-39
2021/05/31 14:20:50;;;;;;;2.90;0.70;;;22.50;73.80;;;;;;12433625;28;20069;-37
2021/05/31 14:26:52;;;;;;;3.83;0.73;;;22.20;71.40;;;;;;12432612;28;20578;-38
2021/05/31 14:32:57;;;;;;;8.52;0.90;;;22.10;82.10;;;;;;12442327;28;20461;-37
2021/05/31 14:39:00;;;;;;;1.63;0.75;;;22.10;78.60;;;;;;12439381;28;20057;-38
2021/05/31 14:45:03;;;;;;;3.17;0.70;;;22.10;81.10;;;;;;12438281;28;20049;-37
2021/05/31 14:51:11;;;;;;;2.70;0.73;;;22.20;86.40;;;;;;12436458;28;20057;-38
2021/05/31 14:57:14;;;;;;;2.22;0.70;;;22.60;80.10;;;;;;12432313;28;20059;-39
2021/05/31 15:03:19;;;;;;;2.03;0.80;;;22.10;80.40;;;;;;12429987;28;20088;-38
2021/05/31 15:09:21;;;;;;;2.65;1.02;;;22.20;81.30;;;;;;12433703;28;20137;-37
2021/05/31 15:15:22;;;;;;;3.90;0.80;;;22.70;85.80;;;;;;12435449;28;20058;-38
2021/05/31 15:21:25;;;;;;;2.50;0.60;;;21.90;77.00;;;;;;12430886;28;20034;-37
2021/05/31 15:27:27;;;;;;;0.70;0.50;;;22.10;78.40;;;;;;12432732;28;20049;-37
2021/05/31 15:33:29;;;;;;;1.90;0.70;;;22.10;81.50;;;;;;12437271;28;20491;-38
2021/05/31 15:39:31;;;;;;;2.65;0.70;;;22.50;74.70;;;;;;12437392;28;20863;-37
2021/05/31 15:45:35;;;;;;;3.70;0.80;;;22.70;83.50;;;;;;12434794;28;20049;-38
2021/05/31 15:51:36;;;;;;;2.60;0.70;;;22.30;74.50;;;;;;12433875;28;20053;-38
2021/05/31 15:57:38;;;;;;;1.48;0.57;;;22.40;78.50;;;;;;12434933;28;20160;-38
2021/05/31 16:03:40;;;;;;;5.55;0.90;;;22.60;81.40;;;;;;12431631;28;20072;-39
2021/05/31 16:09:42;;;;;;;3.08;0.80;;;22.20;80.60;;;;;;12426602;28;20050;-37
2021/05/31 16:15:45;;;;;;;1.75;0.55;;;22.20;74.70;;;;;;12429770;28;20049;-38
2021/05/31 16:21:47;;;;;;;2.83;0.70;;;22.90;70.80;;;;;;12432619;28;20084;-39
2021/05/31 16:27:49;;;;;;;3.50;0.80;;;23.50;85.30;;;;;;12430309;28;20523;-38
2021/05/31 16:33:52;;;;;;;1.03;0.63;;;23.60;75.50;;;;;;12436356;28;20557;-38
2021/05/31 16:39:53;;;;;;;3.08;0.73;;;23.10;76.90;;;;;;12432401;28;21961;-38
2021/05/31 16:45:56;;;;;;;1.17;0.60;;;23.00;68.20;;;;;;12428032;28;20056;-37
2021/05/31 16:51:58;;;;;;;2.35;1.05;;;23.00;77.00;;;;;;12429216;28;20065;-37
2021/05/31 16:58:00;;;;;;;2.45;0.65;;;23.40;72.00;;;;;;12433466;28;20471;-41
2021/05/31 17:04:03;;;;;;;2.33;0.70;;;23.60;81.90;;;;;;12430135;28;20527;-39
2021/05/31 17:10:15;;;;;;;1.80;1.00;;;23.50;78.10;;;;;;12429958;28;20137;-38
2021/05/31 17:22:38;;;;;;;4.80;1.00;;;23.50;74.10;;;;;;12418752;28;20073;-38
2021/05/31 17:28:42;;;;;;;4.63;1.58;;;23.40;78.50;;;;;;12410257;28;20869;-42
2021/05/31 17:34:44;;;;;;;4.57;0.90;;;24.10;77.60;;;;;;12408702;28;20673;-38
2021/05/31 17:40:46;;;;;;;2.47;0.80;;;24.40;75.20;;;;;;12434377;28;20045;-38
2021/05/31 17:46:48;;;;;;;2.40;0.80;;;24.50;80.50;;;;;;12441540;28;20083;-38
2021/05/31 17:52:50;;;;;;;5.20;1.07;;;24.30;80.10;;;;;;12434206;28;20577;-39
2021/05/31 17:58:53;;;;;;;3.83;0.90;;;23.20;74.00;;;;;;12441146;28;20464;-38
2021/05/31 18:04:55;;;;;;;5.93;1.00;;;23.40;77.40;;;;;;12436396;28;20099;-38
2021/05/31 18:10:57;;;;;;;3.88;1.10;;;22.60;79.40;;;;;;12432316;28;20376;-37
2021/05/31 18:16:59;;;;;;;4.60;1.00;;;21.80;76.60;;;;;;12433133;28;20057;-38
2021/05/31 18:23:01;;;;;;;4.57;1.10;;;21.20;89.00;;;;;;12435663;28;20675;-37
2021/05/31 18:29:03;;;;;;;3.97;0.90;;;20.60;84.10;;;;;;12433473;28;20054;-38
2021/05/31 18:35:14;;;;;;;1.50;0.90;;;20.20;82.00;;;;;;12435285;28;20528;-40
2021/05/31 18:41:15;;;;;;;4.55;0.90;;;19.90;85.50;;;;;;12431742;28;20285;-37
2021/05/31 18:47:17;;;;;;;3.58;1.10;;;19.80;85.00;;;;;;12434174;28;20053;-37
2021/05/31 18:53:19;;;;;;;2.88;1.10;;;19.90;92.40;;;;;;12435171;28;20099;-39
2021/05/31 18:59:21;;;;;;;7.78;1.13;;;19.60;90.80;;;;;;12432855;28;20103;-37
2021/05/31 19:05:23;;;;;;;3.30;0.75;;;19.20;89.80;;;;;;12434887;28;20050;-37
2021/05/31 19:11:25;;;;;;;2.75;1.10;;;19.00;90.20;;;;;;12434245;28;20053;-37
2021/05/31 19:17:27;;;;;;;2.45;1.02;;;19.00;89.30;;;;;;12435358;28;20053;-37
2021/05/31 19:23:31;;;;;;;3.53;0.90;;;18.80;95.10;;;;;;12437522;28;20380;-37
2021/05/31 19:29:33;;;;;;;3.63;1.02;;;18.70;85.30;;;;;;12435768;28;20053;-39
2021/05/31 19:35:35;;;;;;;4.13;1.08;;;18.60;93.70;;;;;;12431706;28;20054;-36
2021/05/31 19:41:38;;;;;;;6.60;1.10;;;18.40;94.40;;;;;;12436590;28;20520;-37
2021/05/31 19:47:41;;;;;;;4.75;0.90;;;18.10;93.00;;;;;;12436917;28;20076;-37
2021/05/31 19:53:46;;;;;;;4.65;1.40;;;17.90;92.70;;;;;;12437434;28;20068;-37
2021/05/31 19:59:51;;;;;;;5.43;0.80;;;17.80;93.80;;;;;;12441784;28;20053;-37
2021/05/31 20:05:53;;;;;;;1.23;0.70;;;17.80;95.10;;;;;;12426545;28;20466;-37
2021/05/31 20:11:55;;;;;;;3.42;1.00;;;17.60;95.10;;;;;;12436704;28;20154;-37
2021/05/31 20:17:58;;;;;;;4.63;1.30;;;17.50;93.50;;;;;;12436172;28;20053;-38
2021/05/31 20:24:00;;;;;;;3.13;1.00;;;17.40;93.80;;;;;;12431945;28;20075;-39
2021/05/31 20:30:05;;;;;;;2.53;1.13;;;17.50;93.90;;;;;;12438174;28;20116;-37
2021/05/31 20:36:07;;;;;;;4.15;1.00;;;17.50;99.30;;;;;;12431307;28;20094;-37
2021/05/31 20:42:09;;;;;;;3.38;1.10;;;17.60;99.90;;;;;;12433660;28;20464;-37
2021/05/31 20:48:11;;;;;;;2.65;1.10;;;17.50;99.90;;;;;;12428174;28;20137;-37
2021/05/31 20:54:14;;;;;;;2.92;1.10;;;17.20;99.90;;;;;;12434953;28;20068;-38
2021/05/31 21:00:18;;;;;;;2.05;1.10;;;16.90;99.90;;;;;;12433990;28;20050;-38
2021/05/31 21:06:21;;;;;;;4.20;1.20;;;16.50;99.90;;;;;;12434388;28;20076;-37
2021/05/31 21:12:25;;;;;;;4.05;1.00;;;16.10;99.90;;;;;;12438906;28;20057;-37
2021/05/31 21:18:30;;;;;;;1.57;0.87;;;15.90;99.90;;;;;;12444104;28;20065;-37
2021/05/31 21:24:37;;;;;;;5.38;1.17;;;15.80;99.90;;;;;;12441568;28;20169;-40
2021/05/31 21:30:42;;;;;;;2.78;1.10;;;15.80;99.90;;;;;;12445869;28;20065;-37
2021/05/31 21:36:55;;;;;;;5.55;1.15;;;15.60;99.90;;;;;;12440693;28;20475;-37
2021/05/31 21:42:57;;;;;;;5.18;1.20;;;15.50;99.90;;;;;;12444650;28;20081;-37
2021/05/31 21:48:59;;;;;;;3.60;1.30;;;15.60;99.90;;;;;;12439716;28;20110;-37
2021/05/31 21:55:01;;;;;;;5.43;1.10;;;15.60;99.90;;;;;;12439993;28;20052;-38
2021/05/31 22:01:03;;;;;;;4.15;1.65;;;15.50;99.90;;;;;;12442086;28;20056;-37
2021/05/31 22:07:05;;;;;;;3.67;1.20;;;15.40;99.90;;;;;;12439914;28;20076;-37
2021/05/31 22:13:17;;;;;;;3.90;1.40;;;15.30;99.90;;;;;;12436550;28;20194;-39
2021/05/31 22:19:21;;;;;;;3.92;1.40;;;15.30;99.90;;;;;;12442034;28;20064;-37
2021/05/31 22:25:23;;;;;;;3.47;1.20;;;15.20;99.90;;;;;;12442094;28;20538;-37
2021/05/31 22:31:25;;;;;;;4.22;1.60;;;15.30;99.90;;;;;;12438537;28;20061;-39
2021/05/31 22:37:27;;;;;;;4.85;1.20;;;15.40;99.90;;;;;;12441712;28;20107;-40
2021/05/31 23:03:00;;;;;;;2.35;1.25;;;15.50;99.90;;;;;;12438600;28;20505;-37
2021/05/31 23:15:30;;;;;;;3.28;1.10;;;14.70;99.90;;;;;;12419537;28;20057;-40
2021/05/31 23:21:37;;;;;;;2.65;1.45;;;14.30;99.90;;;;;;12439450;28;20057;-37
2021/05/31 23:27:39;;;;;;;3.45;1.52;;;14.10;99.90;;;;;;12435961;28;20118;-41
2021/05/31 23:33:41;;;;;;;2.25;1.35;;;14.10;99.90;;;;;;12431308;28;20393;-37
2021/05/31 23:39:47;;;;;;;3.08;1.48;;;14.20;99.90;;;;;;12438754;28;20452;-37
2021/05/31 23:45:48;;;;;;;3.38;1.30;;;14.20;99.90;;;;;;12436132;28;20103;-38
2021/05/31 23:51:50;;;;;;;1.80;1.20;;;14.30;99.90;;;;;;12434433;28;20045;-37
2021/05/31 23:57:52;;;;;;;2.70;1.13;;;14.20;99.90;;;;;;12436597;28;20077;-37
